x

Western Prince William Sound (46081) Weather Station

11:50pm - Wed 2nd Sep 2015 All times are UTC.

  • Average Period 3s
  • Wind
    4mph
  • Sea Temp 53°f
  • Air Temp 55°f
  • Sea Pressure 1015.6mb

More Historic Weather Station data

Upgrade to MSW Pro to gain access to the past 30 days of data for over 8000 Wavebouys and Weather Stations around the globe.

Join Pro

Comparision Forecast

View Surf forecast
   
Wed 09/02 11:50pm  -   -  3s 4
mph
1015.6mb 53f 55f
10:50pm  -   -  3s 4
mph
1015.9mb 53f 54f
9:50pm  -   -  4s 7
mph
1016mb 53f 53f
8:50pm  -   -  3s 2
mph
1016.3mb 53f 52f
7:50pm  -   -  3s 2
mph
1016.5mb 53f 52f
6:50pm 0.7ft  -  4s 2 4 mph 1016.3mb 52f 51f
5:50pm  -   -  3s  -  2 mph 1016.5mb 52f 51f
4:50pm  -   -  3s 2 4 mph 1016.3mb 52f 50f
3:50pm  -   -  3s 2 4 mph 1016.1mb 52f 51f
2:50pm  -   -  2s 4 7 mph 1016mb 52f 49f
1:50pm 0.3ft  -  2s 7
mph
1016mb 51f 49f
12:50pm 0.3ft  -  2s 2 4 mph 1016mb 52f 50f
11:50am 0.3ft  -  2s 9
mph
1015.7mb 52f 50f
10:50am  -   -  2s 11 13 mph 1015.7mb 52f 51f
9:50am  -   -  2s 2 7 mph 1015.6mb 53f 51f
8:50am  -   -  2s 4 7 mph 1015.5mb 52f 51f
7:50am 0.3ft  -  2s 11 13 mph 1015.4mb 53f 53f
6:50am  -   -  2s 7 9 mph 1015.3mb 53f 53f
5:50am 0.3ft  -  3s 2 4 mph 1014.9mb 52f 54f
4:50am 0.3ft  -  3s 7 9 mph 1014.2mb 53f 54f
3:50am 0.3ft  -  3s 9 11 mph 1013.3mb 52f 58f
2:50am 0.3ft  -  3s 4 7 mph 1012.9mb 52f 56f
1:50am 0.3ft  -  2s 9 11 mph 1012.9mb 52f 58f
12:50am 0.3ft  -  3s 7 9 mph 1012.7mb 52f 55f
Tue 09/01 11:50pm 0.3ft  -  4s 7 11 mph 1012.3mb 52f 55f
10:50pm 0.3ft  -  3s 7
mph
1012mb 52f 57f
9:50pm 0.3ft  -  3s 9
mph
1012mb 52f 57f
8:50pm 0.3ft  -  2s 11
mph
1012.3mb 52f 56f
7:50pm 0.7ft  -  3s 4 9 mph 1012.6mb 51f 55f
6:50pm 1ft 3s 3s 16 20 mph 1012.3mb 51f 55f
5:50pm 1ft 2s 3s 16 18 mph 1012.3mb 51f 54f
4:50pm 0.7ft  -  2s 16 18 mph 1012mb 51f 53f
3:50pm 0.7ft  -  3s 13 18 mph 1011.6mb 51f 53f
2:50pm 1ft 3s 3s 18 22 mph 1010.8mb 51f 53f
1:50pm 1.3ft 3s 3s 18 20 mph 1010.3mb 51f 53f
12:50pm 1.3ft 3s 3s 18 22 mph 1009.7mb 52f 54f
11:50am 1ft 3s 3s 16 20 mph 1009.1mb 52f 54f
10:50am 1ft 3s 3s 16 18 mph 1008.5mb 53f 55f
9:50am 1.3ft 3s 3s 18 22 mph 1007.9mb 53f 56f
8:50am 1.3ft 3s 3s 18 22 mph 1007.4mb 53f 56f
7:50am 1ft 3s 3s 18 22 mph 1006.9mb 53f 56f
6:50am 0.7ft  -  2s 16 20 mph 1006.3mb 53f 57f
5:50am 0.7ft  -  2s 11 13 mph 1005.8mb 53f 57f
4:50am 0.3ft  -  2s 13 16 mph 1005.1mb 53f 58f
3:50am 0.7ft  -  2s 11 13 mph 1004.6mb 53f 58f
2:50am 1ft 3s 3s 11 13 mph 1004mb 53f 58f
1:50am 1.3ft 3s 3s 11 16 mph 1003.2mb 53f 58f
12:50am 1.3ft 3s 3s 11 16 mph 1002.5mb 53f 57f
Mon 08/31 11:50pm 1.3ft 3s 3s 11 18 mph 1001.7mb 53f 57f
10:50pm 1.3ft 3s 3s 11 16 mph 1001mb 53f 56f
9:50pm 1.3ft 2s 3s 16 22 mph 1000.1mb 52f 55f
8:50pm 1.6ft 3s 3s 18 22 mph 999.2mb 52f 54f
7:50pm 1.6ft 3s 3s 20 25 mph 998.2mb 53f 52f
6:50pm 1.6ft 3s 3s 22 27 mph 997.2mb 52f 51f
5:50pm 1.6ft 3s 3s 22 29 mph 996.5mb 52f 51f
4:50pm 2ft 3s 3s 22 29 mph 995.7mb 53f 51f
3:50pm 2ft 3s 3s 22 27 mph 994.9mb 53f 51f
2:50pm 2.5ft 3s 3s 22 29 mph 994mb 53f 51f
1:50pm 2ft 3s 3s 20 29 mph 993.5mb 53f 51f
12:50pm 2.5ft 3s 3s 22 29 mph 993mb 53f 51f
11:50am 2ft 3s 3s 25 29 mph 992.4mb 53f 51f
10:50am 1.6ft 3s 3s 25 31 mph 992.3mb 53f 51f
9:50am 1.6ft 3s 3s 25 31 mph 992mb 53f 52f
8:50am 1.6ft 3s 3s 25 29 mph 992mb 54f 53f
7:50am 1.3ft 2s 3s 25 29 mph 991.7mb 54f 53f
6:50am 1.3ft 3s 3s 25 31 mph 991.3mb 54f 54f
5:50am 1ft 2s 3s 20 25 mph 991.2mb 54f 55f
4:50am 1ft 2s 3s 18 27 mph 991mb 54f 55f
3:50am 1.3ft 2s 3s 18 22 mph 990.7mb 54f 56f
2:50am 1.3ft 3s 3s 16 22 mph 990.5mb 54f 56f
1:50am 2ft 3s 3s 20 27 mph 989.9mb 55f 57f
12:50am 2ft 3s 3s 22 29 mph 989.4mb 55f 56f
Sun 08/30 11:50pm 2.5ft 3s 3s 22 27 mph 988.9mb 54f 56f
10:50pm 2.5ft 3s 3s 22 27 mph 988.6mb 54f 56f
9:50pm 2ft 3s 3s 20 27 mph 988.4mb 54f 55f
8:50pm 2ft 3s 3s 20 31 mph 988.2mb 54f 54f
7:50pm 1.6ft 3s 3s 22 29 mph 988mb 54f 53f
6:50pm 1.6ft 2s 3s 22 29 mph 987.9mb 54f 53f
5:50pm 2ft 3s 3s 22 31 mph 987.8mb 53f 52f
4:50pm 2.5ft 3s 3s 25 31 mph 987.4mb 54f 52f
3:50pm 2ft 3s 3s 25 29 mph 987.2mb 53f 52f
2:50pm 2ft 3s 3s 25 31 mph 986.9mb 54f 51f
1:50pm 1.6ft 3s 3s 22 27 mph 986.9mb 54f 52f
12:50pm 1.3ft 3s 3s 20 25 mph 986.8mb 54f 52f
11:50am 1.6ft 3s 3s 18 22 mph 986.8mb 54f 53f
10:50am 1ft 3s 3s 18 27 mph 987mb 54f 52f
9:50am 1ft 3s 3s 18 22 mph 987.4mb 54f 53f
8:50am 1ft 3s 3s 20 25 mph 987.8mb 53f 53f
7:50am 1ft 3s 3s 18 25 mph 988.3mb 53f 53f
6:50am 0.3ft  -  2s 13 18 mph 988.9mb 53f 54f
5:50am  -   -  3s  -  2 mph 989.5mb 54f 53f
4:50am 0.3ft  -  2s 7 9 mph 989.8mb 54f 53f
3:50am 0.7ft  -  2s 9
mph
990.1mb 53f 53f
2:50am 0.7ft  -  3s 9 13 mph 990.1mb 53f 55f
1:50am 0.7ft  -  2s 13 16 mph 990.5mb 53f 55f
12:50am 0.3ft  -  3s 7 9 mph 991.1mb 54f 55f